createdAt,value
2024-01-15T00:00:37.774Z,98325.48
2024-01-15T00:03:29.501Z,98328.50
2024-01-15T00:06:01.660Z,98323.66
2024-01-15T00:08:33.178Z,98323.77
2024-01-15T00:11:05.200Z,98310.05
2024-01-15T00:13:36.599Z,98307.63
2024-01-15T00:16:09.088Z,98300.81
2024-01-15T00:18:40.638Z,98302.89
2024-01-15T00:21:12.021Z,98293.59
2024-01-15T00:23:45.941Z,98288.13
2024-01-15T00:26:17.474Z,98287.50
2024-01-15T00:28:48.953Z,98279.67
2024-01-15T00:31:21.019Z,98281.13
2024-01-15T00:33:52.667Z,98279.94
2024-01-15T00:36:24.204Z,98279.65
2024-01-15T00:38:55.957Z,98284.27
2024-01-15T00:41:28.818Z,98271.74
2024-01-15T00:44:00.151Z,98272.48
2024-01-15T00:46:31.512Z,98265.76
2024-01-15T00:49:02.861Z,98267.35
2024-01-15T00:51:34.360Z,98261.15
2024-01-15T00:54:05.713Z,98264.50
2024-01-15T00:56:37.072Z,98267.20
2024-01-15T00:59:08.955Z,98266.39
2024-01-15T01:01:44.097Z,98262.01
2024-01-15T01:04:15.770Z,98257.19
2024-01-15T01:06:47.260Z,98252.31
2024-01-15T01:09:18.644Z,98247.23
2024-01-15T01:11:50.252Z,98247.00
2024-01-15T01:14:21.610Z,98245.34
2024-01-15T01:16:52.943Z,98242.73
2024-01-15T01:19:24.469Z,98242.71
2024-01-15T01:21:55.971Z,98243.26
2024-01-15T01:24:27.341Z,98244.61
2024-01-15T01:26:58.869Z,98246.60
2024-01-15T01:29:30.256Z,98250.38
2024-01-15T01:32:01.529Z,98252.30
2024-01-15T01:34:35.174Z,98250.94
2024-01-15T01:37:06.925Z,98253.39
2024-01-15T01:39:38.245Z,98257.27
2024-01-15T01:42:10.308Z,98258.67
2024-01-15T01:44:41.740Z,98255.36
2024-01-15T01:47:13.420Z,98256.79
2024-01-15T01:49:45.275Z,98254.52
2024-01-15T01:52:17.449Z,98257.52
2024-01-15T01:54:49.107Z,98252.91
2024-01-15T01:57:21.550Z,98251.10
2024-01-15T01:59:55.275Z,98252.13
2024-01-15T02:02:28.018Z,98252.21
2024-01-15T02:04:59.513Z,98254.55
2024-01-15T02:07:31.399Z,98252.70
2024-01-15T02:10:02.735Z,98254.08
2024-01-15T02:12:34.601Z,98254.44
2024-01-15T02:15:06.971Z,98256.73
2024-01-15T02:17:58.380Z,98258.95
2024-01-15T02:20:30.227Z,98257.28
2024-01-15T02:23:10.074Z,98256.67
2024-01-15T02:25:44.590Z,98250.58
2024-01-15T02:28:17.375Z,98245.03
2024-01-15T02:30:49.120Z,98244.55
2024-01-15T02:33:20.744Z,98243.48
2024-01-15T02:35:52.180Z,98242.58
2024-01-15T02:38:23.577Z,98254.73
2024-01-15T02:40:54.851Z,98252.20
2024-01-15T02:43:26.126Z,98254.09
2024-01-15T02:45:57.490Z,98251.70
2024-01-15T02:48:28.999Z,98250.42
2024-01-15T02:51:00.487Z,98256.90
2024-01-15T02:53:32.026Z,98255.56
2024-01-15T02:56:03.299Z,98251.73
2024-01-15T02:58:34.783Z,98254.66
2024-01-15T03:01:06.688Z,98252.70
2024-01-15T03:03:38.264Z,98256.77
2024-01-15T03:06:10.040Z,98253.98
2024-01-15T03:08:41.462Z,98258.04
2024-01-15T03:11:12.844Z,98262.35
2024-01-15T03:13:44.161Z,98265.91
2024-01-15T03:16:15.468Z,98266.59
2024-01-15T03:18:46.985Z,98268.95
2024-01-15T03:21:18.542Z,98265.44
2024-01-15T03:23:50.044Z,98265.95
2024-01-15T03:26:21.484Z,98263.48
2024-01-15T03:28:52.963Z,98261.38
2024-01-15T03:31:24.378Z,98269.33
2024-01-15T03:33:55.984Z,98261.70
2024-01-15T03:36:27.459Z,98266.47
2024-01-15T03:38:58.800Z,98272.48
2024-01-15T03:41:30.203Z,98269.30
2024-01-15T03:44:01.527Z,98270.52
2024-01-15T03:46:33.036Z,98266.29
2024-01-15T03:49:05.292Z,98262.26
2024-01-15T03:51:36.861Z,98253.09
2024-01-15T03:54:08.421Z,98251.12
2024-01-15T03:56:39.884Z,98254.67
2024-01-15T03:59:11.228Z,98253.81
2024-01-15T04:01:42.747Z,98252.02
2024-01-15T04:04:17.466Z,98252.16
2024-01-15T04:06:49.432Z,98251.00
2024-01-15T04:09:21.061Z,98251.34
2024-01-15T04:11:52.384Z,98250.41
2024-01-15T04:14:23.725Z,98251.46
2024-01-15T04:16:55.055Z,98248.01
2024-01-15T04:19:26.413Z,98245.14
2024-01-15T04:21:57.756Z,98240.48
2024-01-15T04:24:29.070Z,98241.11
2024-01-15T04:27:00.786Z,98243.91
2024-01-15T04:29:32.081Z,98241.54
2024-01-15T04:32:03.406Z,98240.28
2024-01-15T04:34:34.891Z,98236.80
2024-01-15T04:37:06.686Z,98234.40
2024-01-15T04:39:38.010Z,98229.90
2024-01-15T04:42:10.744Z,98227.96
2024-01-15T04:44:42.149Z,98228.88
2024-01-15T04:47:13.492Z,98222.59
2024-01-15T04:49:44.916Z,98226.34
2024-01-15T04:52:16.366Z,98218.67
2024-01-15T04:54:47.760Z,98216.50
2024-01-15T04:57:19.237Z,98221.30
2024-01-15T04:59:50.608Z,98219.82
2024-01-15T05:02:21.887Z,98215.40
2024-01-15T05:04:53.217Z,98211.75
2024-01-15T05:07:24.640Z,98212.46
2024-01-15T05:09:56.011Z,98211.50
2024-01-15T05:12:27.510Z,98208.39
2024-01-15T05:14:59.071Z,98208.98
2024-01-15T05:17:30.469Z,98204.42
2024-01-15T05:20:02.072Z,98196.38
2024-01-15T05:22:33.716Z,98190.52
2024-01-15T05:25:05.487Z,98184.17
2024-01-15T05:27:36.912Z,98172.29
2024-01-15T05:30:09.885Z,98176.07
2024-01-15T05:32:40.051Z,98173.77
2024-01-15T05:35:11.781Z,98165.94
2024-01-15T05:37:45.882Z,98172.12
2024-01-15T05:40:17.693Z,98183.52
2024-01-15T05:42:49.156Z,98187.05
2024-01-15T05:45:20.840Z,98191.36
2024-01-15T05:47:52.394Z,98190.95
2024-01-15T05:50:24.123Z,98194.16
2024-01-15T05:52:55.510Z,98189.02
2024-01-15T05:55:26.974Z,98187.55
2024-01-15T05:57:58.407Z,98184.02
2024-01-15T06:00:30.514Z,98187.61
2024-01-15T06:03:01.887Z,98194.89
2024-01-15T06:05:33.421Z,98193.34
2024-01-15T06:08:05.279Z,98197.55
2024-01-15T06:10:37.271Z,98197.19
2024-01-15T06:13:08.681Z,98185.77
2024-01-15T06:15:40.192Z,98184.61
2024-01-15T06:18:11.659Z,98187.55
2024-01-15T06:20:43.832Z,98175.60
2024-01-15T06:23:17.887Z,98178.70
2024-01-15T06:25:50.541Z,98182.31
2024-01-15T06:28:21.953Z,98183.54
2024-01-15T06:30:53.794Z,98179.32
2024-01-15T06:33:25.462Z,98187.65
2024-01-15T06:35:57.664Z,98189.84
2024-01-15T06:38:29.131Z,98186.69
2024-01-15T06:41:00.485Z,98184.14
2024-01-15T06:43:31.972Z,98181.68
2024-01-15T06:46:06.429Z,98180.52
2024-01-15T06:48:39.238Z,98182.65
2024-01-15T06:51:10.690Z,98175.50
2024-01-15T06:53:42.115Z,98176.60
2024-01-15T06:56:13.531Z,98174.33
2024-01-15T06:58:44.866Z,98166.77
2024-01-15T07:01:17.060Z,98170.19
2024-01-15T07:03:48.594Z,98165.54
2024-01-15T07:06:20.262Z,98166.17
2024-01-15T07:08:52.776Z,98164.58
2024-01-15T07:11:24.079Z,98159.22
2024-01-15T07:13:55.458Z,98165.45
2024-01-15T07:16:36.483Z,98167.29
2024-01-15T07:19:09.628Z,98172.05
2024-01-15T07:21:44.332Z,98181.35
2024-01-15T07:24:15.794Z,98183.66
2024-01-15T07:26:47.090Z,98178.58
2024-01-15T07:29:18.373Z,98169.27
2024-01-15T07:31:53.795Z,98180.63
2024-01-15T07:34:25.434Z,98177.70
2024-01-15T07:36:57.178Z,98180.48
2024-01-15T07:39:30.100Z,98182.02
2024-01-15T07:42:01.559Z,98182.95
2024-01-15T07:44:33.028Z,98182.89
2024-01-15T07:47:04.843Z,98178.23
2024-01-15T07:49:36.308Z,98177.91
2024-01-15T07:52:08.351Z,98176.58
2024-01-15T07:54:39.777Z,98172.88
2024-01-15T07:57:11.264Z,98172.89
2024-01-15T07:59:42.969Z,98172.98
2024-01-15T08:02:14.561Z,98170.17
2024-01-15T08:04:47.156Z,98167.59
2024-01-15T08:07:19.398Z,98163.60
2024-01-15T08:09:50.869Z,98160.61
2024-01-15T08:12:23.203Z,98157.81
2024-01-15T08:14:55.421Z,98158.04
2024-01-15T08:17:29.684Z,98159.02
2024-01-15T08:20:02.783Z,98159.88
2024-01-15T08:22:35.380Z,98158.02
2024-01-15T08:25:09.328Z,98158.92
2024-01-15T08:27:41.089Z,98157.40
2024-01-15T08:30:14.730Z,98156.06
2024-01-15T08:32:46.458Z,98154.72
2024-01-15T08:35:18.035Z,98152.14
2024-01-15T08:37:49.375Z,98155.49
2024-01-15T08:40:21.165Z,98154.14
2024-01-15T08:42:52.614Z,98153.33
2024-01-15T08:45:24.444Z,98153.04
2024-01-15T08:47:55.869Z,98160.44
2024-01-15T08:50:27.425Z,98162.33
2024-01-15T08:52:58.944Z,98156.98
2024-01-15T08:55:30.370Z,98155.58
2024-01-15T08:58:01.756Z,98152.31
2024-01-15T09:00:33.262Z,98158.23
2024-01-15T09:03:06.821Z,98163.44
2024-01-15T09:05:38.412Z,98159.91
2024-01-15T09:08:09.958Z,98163.93
2024-01-15T09:10:42.182Z,98163.23
2024-01-15T09:13:13.486Z,98167.98
2024-01-15T09:15:45.869Z,98160.56
2024-01-15T09:18:17.363Z,98164.48
2024-01-15T09:20:48.833Z,98162.95
2024-01-15T09:23:20.188Z,98160.62
2024-01-15T09:25:54.068Z,98165.63
2024-01-15T09:28:25.673Z,98164.16
2024-01-15T09:30:57.164Z,98162.87
2024-01-15T09:33:28.730Z,98166.35
2024-01-15T09:36:02.945Z,98165.46
2024-01-15T09:38:34.706Z,98171.48
2024-01-15T09:41:06.936Z,98166.67
2024-01-15T09:43:39.457Z,98166.94
2024-01-15T09:46:11.983Z,98162.52
2024-01-15T09:48:43.588Z,98161.54
2024-01-15T09:51:16.174Z,98157.39
2024-01-15T09:53:49.287Z,98157.26
2024-01-15T09:56:21.091Z,98157.55
2024-01-15T09:58:53.981Z,98154.98
2024-01-15T10:01:26.076Z,98153.54
2024-01-15T10:03:58.088Z,98154.50
2024-01-15T10:06:30.687Z,98158.83
2024-01-15T10:09:02.586Z,98148.84
2024-01-15T10:11:34.350Z,98146.02
2024-01-15T10:14:06.572Z,98144.10
2024-01-15T10:16:39.110Z,98138.47
2024-01-15T10:19:12.082Z,98134.34
2024-01-15T10:21:42.190Z,98129.34
2024-01-15T10:24:14.154Z,98130.63
2024-01-15T10:26:45.916Z,98120.61
2024-01-15T10:29:18.407Z,98114.61
2024-01-15T10:31:50.598Z,98112.36
2024-01-15T10:34:22.980Z,98108.20
2024-01-15T10:36:56.691Z,98103.92
2024-01-15T10:39:28.544Z,98101.05
2024-01-15T10:42:00.043Z,98097.30
2024-01-15T10:44:31.746Z,98093.84
2024-01-15T10:47:03.309Z,98092.41
2024-01-15T10:49:34.858Z,98092.86
2024-01-15T10:52:07.827Z,98088.55
2024-01-15T10:54:41.267Z,98079.63
2024-01-15T10:57:14.575Z,98078.16
2024-01-15T10:59:45.851Z,98078.95
2024-01-15T11:02:17.759Z,98076.80
2024-01-15T11:04:49.361Z,98073.38
2024-01-15T11:07:25.533Z,98071.29
2024-01-15T11:10:00.066Z,98067.26
2024-01-15T11:12:31.503Z,98064.33
2024-01-15T11:15:10.327Z,98058.02
2024-01-15T11:17:54.342Z,98059.62
2024-01-15T11:20:25.805Z,98062.87
2024-01-15T11:22:59.029Z,98054.21
2024-01-15T11:25:36.168Z,98056.73
2024-01-15T11:28:07.914Z,98058.27
2024-01-15T11:30:39.353Z,98059.16
2024-01-15T11:33:50.069Z,98063.81
2024-01-15T11:36:21.664Z,98065.14
2024-01-15T11:38:53.001Z,98068.61
2024-01-15T11:41:26.637Z,98069.98
2024-01-15T11:44:01.386Z,98071.71
2024-01-15T11:46:39.182Z,98071.67
2024-01-15T11:49:18.285Z,98070.02
2024-01-15T11:51:50.431Z,98068.23
2024-01-15T11:54:24.865Z,98076.11
2024-01-15T11:56:58.489Z,98078.97
2024-01-15T11:59:29.800Z,98075.89
2024-01-15T12:02:01.632Z,98077.55
2024-01-15T12:04:33.018Z,98078.16
2024-01-15T12:07:05.330Z,98077.36
2024-01-15T12:09:36.892Z,98080.88
2024-01-15T12:12:15.824Z,98082.45
2024-01-15T12:14:47.390Z,98083.90
2024-01-15T12:17:19.503Z,98084.78
2024-01-15T12:19:51.057Z,98082.26
2024-01-15T12:22:22.581Z,98080.39
2024-01-15T12:24:53.859Z,98079.83
2024-01-15T12:27:26.040Z,98077.73
2024-01-15T12:29:57.619Z,98079.02
2024-01-15T12:32:29.032Z,98079.61
2024-01-15T12:35:01.385Z,98086.09
2024-01-15T12:37:34.418Z,98086.71
2024-01-15T12:40:07.900Z,98090.55
2024-01-15T12:42:39.339Z,98087.77
2024-01-15T12:45:13.876Z,98080.98
2024-01-15T12:47:46.019Z,98080.40
2024-01-15T12:50:20.149Z,98087.13
2024-01-15T12:52:52.720Z,98090.62
2024-01-15T12:55:24.160Z,98095.65
2024-01-15T12:57:56.447Z,98093.13
2024-01-15T13:00:28.420Z,98091.56
2024-01-15T13:03:01.986Z,98093.57
2024-01-15T13:05:35.411Z,98094.58
2024-01-15T13:08:08.361Z,98099.83
2024-01-15T13:10:39.660Z,98103.33
2024-01-15T13:13:10.945Z,98106.98
2024-01-15T13:15:42.340Z,98102.65
2024-01-15T13:18:14.628Z,98101.86
2024-01-15T13:20:47.105Z,98103.17
2024-01-15T13:23:18.685Z,98097.50
2024-01-15T13:25:51.125Z,98091.45
2024-01-15T13:28:23.801Z,98082.99
2024-01-15T13:30:55.395Z,98084.11
2024-01-15T13:33:26.947Z,98073.16
2024-01-15T13:35:58.841Z,98083.73
2024-01-15T13:38:35.812Z,98084.18
2024-01-15T13:41:07.706Z,98084.24
2024-01-15T13:43:38.985Z,98084.70
2024-01-15T13:46:11.024Z,98083.35
2024-01-15T13:48:42.398Z,98087.69
2024-01-15T13:51:13.886Z,98096.54
2024-01-15T13:53:45.348Z,98105.48
2024-01-15T13:56:18.981Z,98108.91
2024-01-15T13:58:52.969Z,98115.82
2024-01-15T14:01:24.296Z,98119.27
2024-01-15T14:03:55.917Z,98122.80
2024-01-15T14:06:27.631Z,98123.48
2024-01-15T14:08:58.922Z,98128.16
2024-01-15T14:11:30.236Z,98125.30
2024-01-15T14:14:01.490Z,98122.91
2024-01-15T14:16:32.787Z,98125.80
2024-01-15T14:19:04.618Z,98121.61
2024-01-15T14:21:36.009Z,98124.42
2024-01-15T14:24:08.909Z,98121.16
2024-01-15T14:26:40.360Z,98120.66
2024-01-15T14:29:11.664Z,98119.58
2024-01-15T14:31:43.325Z,98120.73
2024-01-15T14:34:15.231Z,98129.34
2024-01-15T14:36:47.994Z,98134.92
2024-01-15T14:39:21.167Z,98137.61
2024-01-15T14:41:53.611Z,98139.79
2024-01-15T14:44:25.172Z,98144.11
2024-01-15T14:46:57.109Z,98147.66
2024-01-15T14:49:28.633Z,98152.04
2024-01-15T14:52:00.015Z,98152.89
2024-01-15T14:54:31.357Z,98157.05
2024-01-15T14:57:02.764Z,98158.91
2024-01-15T14:59:34.615Z,98159.91
2024-01-15T15:02:07.837Z,98150.85
2024-01-15T15:04:39.175Z,98146.63
2024-01-15T15:07:09.623Z,98156.17
2024-01-15T15:09:42.359Z,98154.25
2024-01-15T15:12:13.981Z,98149.96
2024-01-15T15:14:55.997Z,98156.64
2024-01-15T15:17:35.903Z,98166.66
2024-01-15T15:20:09.826Z,98168.99
2024-01-15T15:22:41.719Z,98161.91
2024-01-15T15:25:13.492Z,98165.55
2024-01-15T15:27:45.179Z,98165.95
2024-01-15T15:30:17.399Z,98174.63
2024-01-15T15:32:48.894Z,98176.75
2024-01-15T15:35:20.901Z,98178.62
2024-01-15T15:37:52.516Z,98187.98
2024-01-15T15:40:25.275Z,98193.02
2024-01-15T15:42:56.902Z,98200.64
2024-01-15T15:45:28.295Z,98205.27
2024-01-15T15:47:59.891Z,98213.69
2024-01-15T15:50:34.106Z,98220.71
2024-01-15T15:53:06.545Z,98229.13
2024-01-15T15:55:38.352Z,98237.67
2024-01-15T15:58:10.948Z,98246.41
2024-01-15T16:00:42.562Z,98247.98
2024-01-15T16:03:14.117Z,98242.75
2024-01-15T16:05:52.171Z,98241.33
2024-01-15T16:08:24.992Z,98248.78
2024-01-15T16:10:56.708Z,98249.09
2024-01-15T16:13:28.116Z,98257.48
2024-01-15T16:23:09.016Z,98266.73
2024-01-15T16:23:22.481Z,98269.63
2024-01-15T16:23:37.705Z,98281.31
2024-01-15T16:24:42.349Z,98282.33
2024-01-15T16:27:22.214Z,98280.62
2024-01-15T16:29:53.599Z,98280.67
2024-01-15T16:32:24.975Z,98291.14
2024-01-15T16:34:57.286Z,98284.27
2024-01-15T16:37:29.307Z,98282.91
2024-01-15T16:40:01.438Z,98288.85
2024-01-15T16:42:33.099Z,98300.46
2024-01-15T16:45:04.734Z,98292.70
2024-01-15T16:47:36.379Z,98290.98
2024-01-15T16:50:09.353Z,98295.64
2024-01-15T16:52:40.984Z,98297.23
2024-01-15T16:55:12.479Z,98301.65
2024-01-15T16:57:43.837Z,98302.77
2024-01-15T17:00:17.618Z,98308.40
2024-01-15T17:02:49.137Z,98319.31
2024-01-15T17:05:22.286Z,98331.98
2024-01-15T17:07:52.497Z,98338.53
2024-01-15T17:10:23.992Z,98345.72
2024-01-15T17:12:55.395Z,98348.01
2024-01-15T17:15:27.000Z,98351.63
2024-01-15T17:17:58.522Z,98354.87
2024-01-15T17:20:30.109Z,98357.34
2024-01-15T17:23:01.446Z,98354.93
2024-01-15T17:25:32.821Z,98359.23
2024-01-15T17:28:04.529Z,98368.27
2024-01-15T17:30:35.918Z,98368.36
2024-01-15T17:33:08.359Z,98370.48
2024-01-15T17:35:39.890Z,98368.63
2024-01-15T17:38:11.946Z,98384.86
2024-01-15T17:40:43.456Z,98383.76
2024-01-15T17:43:14.824Z,98387.39
2024-01-15T17:45:46.595Z,98387.05
2024-01-15T17:48:18.208Z,98390.80
2024-01-15T17:50:49.894Z,98399.70
2024-01-15T17:53:21.279Z,98398.46
2024-01-15T17:55:52.938Z,98399.04
2024-01-15T17:58:24.285Z,98400.80
2024-01-15T18:00:55.680Z,98406.98
2024-01-15T18:03:27.093Z,98417.35
2024-01-15T18:05:58.589Z,98410.54
2024-01-15T18:08:30.584Z,98408.83
2024-01-15T18:11:02.225Z,98408.31
2024-01-15T18:13:34.229Z,98415.42
2024-01-15T18:16:05.990Z,98414.01
2024-01-15T18:18:37.706Z,98413.44
2024-01-15T18:21:09.385Z,98418.52
2024-01-15T18:23:41.101Z,98430.38
2024-01-15T18:26:12.439Z,98429.29
2024-01-15T18:28:43.781Z,98440.85
2024-01-15T18:31:16.444Z,98455.33
2024-01-15T18:33:48.522Z,98459.98
2024-01-15T18:36:20.208Z,98464.91
2024-01-15T18:38:51.594Z,98467.80
2024-01-15T18:41:26.604Z,98471.98
2024-01-15T18:43:58.572Z,98471.30
2024-01-15T18:46:30.062Z,98476.84
2024-01-15T18:49:01.487Z,98476.48
2024-01-15T18:51:32.960Z,98479.23
2024-01-15T18:54:04.663Z,98482.19
2024-01-15T18:56:41.878Z,98480.09
2024-01-15T18:59:13.517Z,98484.59
2024-01-15T19:01:45.502Z,98488.30
2024-01-15T19:04:16.963Z,98489.78
2024-01-15T19:06:49.625Z,98492.37
2024-01-15T19:09:21.723Z,98499.90
2024-01-15T19:11:52.930Z,98499.41
2024-01-15T19:14:24.391Z,98494.17
2024-01-15T19:16:56.074Z,98493.62
2024-01-15T19:19:27.425Z,98495.02
2024-01-15T19:21:59.100Z,98491.59
2024-01-15T19:24:31.181Z,98484.28
2024-01-15T19:27:04.510Z,98479.39
2024-01-15T19:29:37.576Z,98479.56
2024-01-15T19:32:15.928Z,98485.84
2024-01-15T19:34:47.430Z,98482.94
2024-01-15T19:37:18.775Z,98485.83
2024-01-15T19:39:50.103Z,98483.26
2024-01-15T19:42:21.457Z,98496.02
2024-01-15T19:44:52.832Z,98503.45
2024-01-15T19:47:24.212Z,98505.72
2024-01-15T19:49:55.841Z,98507.91
2024-01-15T19:52:27.221Z,98509.50
2024-01-15T19:54:58.575Z,98503.30
2024-01-15T19:57:30.169Z,98513.34
2024-01-15T20:00:01.570Z,98518.84
2024-01-15T20:02:33.271Z,98525.83
2024-01-15T20:05:06.024Z,98527.33
2024-01-15T20:07:37.772Z,98529.52
2024-01-15T20:10:11.644Z,98527.76
2024-01-15T20:12:43.456Z,98530.67
2024-01-15T20:15:15.672Z,98536.28
2024-01-15T20:17:46.957Z,98543.34
2024-01-15T20:20:18.566Z,98545.36
2024-01-15T20:22:49.997Z,98547.20
2024-01-15T20:25:21.430Z,98547.47
2024-01-15T20:27:52.811Z,98550.27
2024-01-15T20:30:24.111Z,98557.61
2024-01-15T20:32:55.544Z,98557.50
2024-01-15T20:35:26.944Z,98565.92
2024-01-15T20:37:59.352Z,98567.15
2024-01-15T20:40:33.353Z,98568.14
2024-01-15T20:43:06.214Z,98566.34
2024-01-15T20:45:37.453Z,98570.33
2024-01-15T20:48:09.807Z,98567.83
2024-01-15T20:50:41.330Z,98574.95
2024-01-15T20:53:12.992Z,98577.48
2024-01-15T20:55:44.607Z,98580.66
2024-01-15T20:58:22.132Z,98589.06
2024-01-15T21:00:53.426Z,98590.43
2024-01-15T21:03:24.859Z,98588.39
2024-01-15T21:05:57.225Z,98589.91
2024-01-15T21:08:30.183Z,98592.58
2024-01-15T21:11:04.614Z,98600.42
2024-01-15T21:13:36.025Z,98599.38
2024-01-15T21:16:08.502Z,98601.34
2024-01-15T21:18:40.021Z,98594.11
2024-01-15T21:21:11.942Z,98596.19
2024-01-15T21:23:43.356Z,98598.14
2024-01-15T21:26:15.204Z,98599.83
2024-01-15T21:28:49.058Z,98601.02
2024-01-15T21:31:20.521Z,98601.35
2024-01-15T21:33:52.166Z,98604.60
2024-01-15T21:36:23.703Z,98600.59
2024-01-15T21:38:55.075Z,98601.34
2024-01-15T21:41:26.535Z,98601.97
2024-01-15T21:43:58.539Z,98603.17
2024-01-15T21:46:29.823Z,98604.48
2024-01-15T21:49:01.152Z,98612.14
2024-01-15T21:51:32.572Z,98611.85
2024-01-15T21:54:04.805Z,98614.48
2024-01-15T21:56:37.467Z,98617.28
2024-01-15T21:59:09.029Z,98618.00
2024-01-15T22:01:40.381Z,98623.90
2024-01-15T22:04:12.773Z,98629.50
2024-01-15T22:06:44.087Z,98636.20
2024-01-15T22:09:16.780Z,98641.85
2024-01-15T22:11:48.507Z,98647.88
2024-01-15T22:14:20.173Z,98659.93
2024-01-15T22:16:51.552Z,98661.20
2024-01-15T22:19:22.902Z,98669.91
2024-01-15T22:21:55.779Z,98669.87
2024-01-15T22:24:27.121Z,98671.55
2024-01-15T22:26:58.386Z,98680.27
2024-01-15T22:29:29.865Z,98684.32
2024-01-15T22:32:01.303Z,98689.38
2024-01-15T22:34:32.811Z,98698.05
2024-01-15T22:37:05.801Z,98700.90
2024-01-15T22:39:37.642Z,98707.42
2024-01-15T22:42:10.070Z,98703.05
2024-01-15T22:44:41.515Z,98706.64
2024-01-15T22:47:12.996Z,98712.23
2024-01-15T22:49:44.467Z,98715.99
2024-01-15T22:52:16.461Z,98722.91
2024-01-15T22:54:49.835Z,98727.04
2024-01-15T22:57:21.186Z,98731.30
2024-01-15T22:59:52.801Z,98735.50
2024-01-15T23:02:24.724Z,98742.88
2024-01-15T23:04:56.377Z,98747.23
2024-01-15T23:07:31.141Z,98752.20
2024-01-15T23:10:02.635Z,98757.17
2024-01-15T23:12:34.644Z,98756.38
2024-01-15T23:15:07.151Z,98754.46
2024-01-15T23:17:39.171Z,98752.84
2024-01-15T23:20:13.194Z,98754.23
2024-01-15T23:22:44.795Z,98757.05
2024-01-15T23:25:16.054Z,98754.30
2024-01-15T23:27:47.705Z,98754.16
2024-01-15T23:30:20.931Z,98760.59
2024-01-15T23:32:53.368Z,98756.70
2024-01-15T23:35:24.905Z,98762.63
2024-01-15T23:37:56.204Z,98761.33
2024-01-15T23:40:27.563Z,98766.33
2024-01-15T23:42:59.262Z,98769.52
2024-01-15T23:45:30.653Z,98762.12
2024-01-15T23:48:02.033Z,98766.10
2024-01-15T23:50:33.592Z,98769.50
2024-01-15T23:53:05.307Z,98769.98
2024-01-15T23:55:36.917Z,98772.44
2024-01-15T23:58:09.292Z,98771.42
